Kuujjuarapik, Canada
Current Conditions -  °F | °C
As of 9:00 PM on Saturday 25 Oct 2014 (Local Time) from CYGW Reporting Station
Overcast Overcast  
Wind Chill: 44°   Ceiling: 3900
Heat Index: 48°   Visibility: 9mi
Dew Point: 39°   Wind: 9mph
Humidity: 71%   Direction: 110°ESE
Pressure: 29.35"   Gusts: NA
Location:  55.26°N, 77.78°W
Report Text: CYGW 260100Z AUTO 11008KT 9SM OVC039 09/04 A2935 RMK SLP938
Loading
Personal Weather Stations






























Interactive Weather Map
Tropical Storm Tracking
New forecast layout! Learn more

10-Day Weather Forecast

Advertisements
Track Severe Weather on mobile